sensor_id;sensor_type;location;lat;lon;timestamp;pressure;altitude;pressure_sealevel;temperature;humidity
77023;BME280;65952;51.440;-2.054;2023-12-22T00:00:13;100073.34;;;12.96;61.10
77023;BME280;65952;51.440;-2.054;2023-12-22T00:02:38;100071.34;;;13.20;60.37
77023;BME280;65952;51.440;-2.054;2023-12-22T00:05:04;100069.13;;;13.09;61.22
77023;BME280;65952;51.440;-2.054;2023-12-22T00:07:29;100065.28;;;13.18;61.16
77023;BME280;65952;51.440;-2.054;2023-12-22T00:09:55;100070.06;;;13.16;61.63
77023;BME280;65952;51.440;-2.054;2023-12-22T00:12:20;100070.81;;;13.10;62.20
77023;BME280;65952;51.440;-2.054;2023-12-22T00:14:46;100062.94;;;13.08;62.18
77023;BME280;65952;51.440;-2.054;2023-12-22T00:17:11;100068.84;;;12.82;63.61
77023;BME280;65952;51.440;-2.054;2023-12-22T00:19:36;100074.59;;;12.79;64.39
77023;BME280;65952;51.440;-2.054;2023-12-22T00:22:02;100064.63;;;12.94;63.52
77023;BME280;65952;51.440;-2.054;2023-12-22T00:24:28;100060.53;;;12.98;63.91
77023;BME280;65952;51.440;-2.054;2023-12-22T00:26:54;100058.09;;;13.04;63.73
77023;BME280;65952;51.440;-2.054;2023-12-22T00:29:19;100063.81;;;12.79;65.07
77023;BME280;65952;51.440;-2.054;2023-12-22T00:31:45;100062.97;;;12.93;64.20
77023;BME280;65952;51.440;-2.054;2023-12-22T00:34:10;100065.53;;;13.01;64.30
77023;BME280;65952;51.440;-2.054;2023-12-22T00:36:36;100065.63;;;12.72;65.19
77023;BME280;65952;51.440;-2.054;2023-12-22T00:39:02;100077.19;;;12.87;64.80
77023;BME280;65952;51.440;-2.054;2023-12-22T00:41:28;100064.84;;;12.78;65.32
77023;BME280;65952;51.440;-2.054;2023-12-22T00:43:53;100079.41;;;12.98;64.69
77023;BME280;65952;51.440;-2.054;2023-12-22T00:46:19;100069.75;;;12.89;64.86
77023;BME280;65952;51.440;-2.054;2023-12-22T00:48:45;100077.06;;;12.95;64.58
77023;BME280;65952;51.440;-2.054;2023-12-22T00:51:10;100074.75;;;12.92;65.06
77023;BME280;65952;51.440;-2.054;2023-12-22T00:53:36;100083.94;;;12.98;64.80
77023;BME280;65952;51.440;-2.054;2023-12-22T00:56:01;100088.69;;;13.32;63.56
77023;BME280;65952;51.440;-2.054;2023-12-22T00:58:31;100088.47;;;13.34;63.59
77023;BME280;65952;51.440;-2.054;2023-12-22T01:00:56;100079.06;;;13.23;63.73
77023;BME280;65952;51.440;-2.054;2023-12-22T01:03:22;100082.78;;;13.22;63.97
77023;BME280;65952;51.440;-2.054;2023-12-22T01:05:47;100079.47;;;13.42;63.20
77023;BME280;65952;51.440;-2.054;2023-12-22T01:08:13;100075.31;;;13.24;63.89
77023;BME280;65952;51.440;-2.054;2023-12-22T01:10:38;100073.38;;;13.18;64.15
77023;BME280;65952;51.440;-2.054;2023-12-22T01:13:03;100064.16;;;13.06;64.77
77023;BME280;65952;51.440;-2.054;2023-12-22T01:15:29;100077.66;;;12.91;65.50
77023;BME280;65952;51.440;-2.054;2023-12-22T01:17:54;100072.75;;;13.16;64.86
77023;BME280;65952;51.440;-2.054;2023-12-22T01:20:20;100064.41;;;13.11;64.94
77023;BME280;65952;51.440;-2.054;2023-12-22T01:22:45;100059.38;;;13.29;64.59
77023;BME280;65952;51.440;-2.054;2023-12-22T01:25:10;100051.13;;;13.31;64.54
77023;BME280;65952;51.440;-2.054;2023-12-22T01:27:36;100047.22;;;13.33;64.46
77023;BME280;65952;51.440;-2.054;2023-12-22T01:30:01;100042.19;;;13.30;64.33
77023;BME280;65952;51.440;-2.054;2023-12-22T01:32:26;100045.22;;;13.21;64.59
77023;BME280;65952;51.440;-2.054;2023-12-22T01:34:58;100040.97;;;13.11;65.01
77023;BME280;65952;51.440;-2.054;2023-12-22T01:37:25;100050.66;;;13.06;65.08
77023;BME280;65952;51.440;-2.054;2023-12-22T01:39:50;100047.25;;;12.97;65.59
77023;BME280;65952;51.440;-2.054;2023-12-22T01:42:16;100045.69;;;12.88;65.55
77023;BME280;65952;51.440;-2.054;2023-12-22T01:44:41;100038.19;;;12.83;66.21
77023;BME280;65952;51.440;-2.054;2023-12-22T01:47:06;100052.47;;;12.83;65.67
77023;BME280;65952;51.440;-2.054;2023-12-22T01:49:32;100042.78;;;12.89;65.48
77023;BME280;65952;51.440;-2.054;2023-12-22T01:51:58;100051.28;;;12.86;65.58
77023;BME280;65952;51.440;-2.054;2023-12-22T01:54:24;100046.44;;;12.81;65.79
77023;BME280;65952;51.440;-2.054;2023-12-22T01:56:50;100035.19;;;12.78;65.41
77023;BME280;65952;51.440;-2.054;2023-12-22T01:59:15;100049.78;;;13.20;64.55
77023;BME280;65952;51.440;-2.054;2023-12-22T02:01:41;100044.53;;;13.33;63.91
77023;BME280;65952;51.440;-2.054;2023-12-22T02:04:09;100031.91;;;13.19;64.47
77023;BME280;65952;51.440;-2.054;2023-12-22T02:06:34;100038.47;;;13.10;65.27
77023;BME280;65952;51.440;-2.054;2023-12-22T02:09:01;100031.41;;;13.09;65.11
77023;BME280;65952;51.440;-2.054;2023-12-22T02:11:27;100036.53;;;13.04;65.17
77023;BME280;65952;51.440;-2.054;2023-12-22T02:13:52;100029.97;;;12.91;65.93
77023;BME280;65952;51.440;-2.054;2023-12-22T02:16:30;100027.75;;;12.95;65.53
77023;BME280;65952;51.440;-2.054;2023-12-22T02:18:59;100030.63;;;12.93;65.80
77023;BME280;65952;51.440;-2.054;2023-12-22T02:21:29;100027.94;;;12.93;65.96
77023;BME280;65952;51.440;-2.054;2023-12-22T02:23:54;100037.34;;;12.82;66.54
77023;BME280;65952;51.440;-2.054;2023-12-22T02:26:30;100042.72;;;13.19;65.55
77023;BME280;65952;51.440;-2.054;2023-12-22T02:29:00;100032.66;;;12.91;66.05
77023;BME280;65952;51.440;-2.054;2023-12-22T02:31:36;100035.22;;;13.14;65.58
77023;BME280;65952;51.440;-2.054;2023-12-22T02:34:05;100026.94;;;13.16;65.58
77023;BME280;65952;51.440;-2.054;2023-12-22T02:36:35;100031.03;;;13.12;65.84
77023;BME280;65952;51.440;-2.054;2023-12-22T02:39:01;100041.72;;;13.05;66.44
77023;BME280;65952;51.440;-2.054;2023-12-22T02:41:27;100038.75;;;12.78;66.88
77023;BME280;65952;51.440;-2.054;2023-12-22T02:43:53;100028.03;;;12.85;66.70
77023;BME280;65952;51.440;-2.054;2023-12-22T02:46:18;100022.09;;;13.11;66.14
77023;BME280;65952;51.440;-2.054;2023-12-22T02:48:44;100029.16;;;12.91;66.47
77023;BME280;65952;51.440;-2.054;2023-12-22T02:51:09;100019.66;;;13.16;65.52
77023;BME280;65952;51.440;-2.054;2023-12-22T02:53:34;100017.28;;;13.07;66.05
77023;BME280;65952;51.440;-2.054;2023-12-22T02:56:00;100013.72;;;12.99;66.23
77023;BME280;65952;51.440;-2.054;2023-12-22T02:58:25;100010.25;;;13.06;65.93
77023;BME280;65952;51.440;-2.054;2023-12-22T03:00:51;100014.22;;;13.10;65.97
77023;BME280;65952;51.440;-2.054;2023-12-22T03:03:16;100012.84;;;12.99;66.36
77023;BME280;65952;51.440;-2.054;2023-12-22T03:05:41;100010.81;;;13.44;64.97
77023;BME280;65952;51.440;-2.054;2023-12-22T03:08:07;100006.78;;;13.33;64.96
77023;BME280;65952;51.440;-2.054;2023-12-22T03:10:32;100000.28;;;13.28;65.48
77023;BME280;65952;51.440;-2.054;2023-12-22T03:12:58;100004.59;;;13.22;65.34
77023;BME280;65952;51.440;-2.054;2023-12-22T03:15:23;99999.69;;;12.89;66.49
77023;BME280;65952;51.440;-2.054;2023-12-22T03:17:48;99994.03;;;12.84;67.09
77023;BME280;65952;51.440;-2.054;2023-12-22T03:20:14;99995.41;;;13.16;65.66
77023;BME280;65952;51.440;-2.054;2023-12-22T03:22:39;100003.56;;;13.23;65.41
77023;BME280;65952;51.440;-2.054;2023-12-22T03:25:05;99987.13;;;13.18;65.62
77023;BME280;65952;51.440;-2.054;2023-12-22T03:27:30;99982.78;;;13.17;65.55
77023;BME280;65952;51.440;-2.054;2023-12-22T03:29:56;99986.06;;;12.91;66.43
77023;BME280;65952;51.440;-2.054;2023-12-22T03:32:21;99981.47;;;12.91;66.29
77023;BME280;65952;51.440;-2.054;2023-12-22T03:34:47;99991.19;;;12.86;66.95
77023;BME280;65952;51.440;-2.054;2023-12-22T03:37:12;99983.66;;;13.03;66.07
77023;BME280;65952;51.440;-2.054;2023-12-22T03:39:38;99991.28;;;12.99;66.53
77023;BME280;65952;51.440;-2.054;2023-12-22T03:42:03;99993.88;;;13.07;65.84
77023;BME280;65952;51.440;-2.054;2023-12-22T03:44:29;99983.91;;;13.29;65.27
77023;BME280;65952;51.440;-2.054;2023-12-22T03:46:54;99984.09;;;13.28;65.21
77023;BME280;65952;51.440;-2.054;2023-12-22T03:49:19;99998.69;;;13.12;66.15
77023;BME280;65952;51.440;-2.054;2023-12-22T03:51:45;99978.50;;;13.29;65.38
77023;BME280;65952;51.440;-2.054;2023-12-22T03:54:10;99987.38;;;13.01;66.97
77023;BME280;65952;51.440;-2.054;2023-12-22T03:56:37;99983.34;;;13.12;66.24
77023;BME280;65952;51.440;-2.054;2023-12-22T03:59:02;99974.56;;;13.04;66.68
77023;BME280;65952;51.440;-2.054;2023-12-22T04:01:27;99971.94;;;13.32;66.30
77023;BME280;65952;51.440;-2.054;2023-12-22T04:03:53;99967.22;;;13.19;66.19
77023;BME280;65952;51.440;-2.054;2023-12-22T04:06:18;99965.13;;;13.14;66.38
77023;BME280;65952;51.440;-2.054;2023-12-22T04:08:43;99965.03;;;13.29;65.61
77023;BME280;65952;51.440;-2.054;2023-12-22T04:11:09;99957.63;;;13.10;65.88
77023;BME280;65952;51.440;-2.054;2023-12-22T04:13:34;99967.50;;;13.03;66.65
77023;BME280;65952;51.440;-2.054;2023-12-22T04:16:00;99970.53;;;13.14;66.14
77023;BME280;65952;51.440;-2.054;2023-12-22T04:18:25;99962.50;;;12.99;66.68
77023;BME280;65952;51.440;-2.054;2023-12-22T04:20:50;99948.63;;;12.81;67.17
77023;BME280;65952;51.440;-2.054;2023-12-22T04:23:18;99958.91;;;12.71;67.65
77023;BME280;65952;51.440;-2.054;2023-12-22T04:25:44;99969.16;;;13.04;66.43
77023;BME280;65952;51.440;-2.054;2023-12-22T04:28:09;99969.44;;;12.87;67.10
77023;BME280;65952;51.440;-2.054;2023-12-22T04:30:35;99954.47;;;12.84;66.70
77023;BME280;65952;51.440;-2.054;2023-12-22T04:33:00;99955.81;;;12.95;66.20
77023;BME280;65952;51.440;-2.054;2023-12-22T04:35:26;99947.38;;;12.77;66.47
77023;BME280;65952;51.440;-2.054;2023-12-22T04:37:51;99959.94;;;12.91;65.72
77023;BME280;65952;51.440;-2.054;2023-12-22T04:40:17;99953.41;;;13.00;65.50
77023;BME280;65952;51.440;-2.054;2023-12-22T04:42:42;99950.34;;;13.10;65.07
77023;BME280;65952;51.440;-2.054;2023-12-22T04:45:08;99966.59;;;13.17;64.81
77023;BME280;65952;51.440;-2.054;2023-12-22T04:47:33;99964.94;;;13.38;64.28
77023;BME280;65952;51.440;-2.054;2023-12-22T04:49:58;99967.75;;;13.51;63.65
77023;BME280;65952;51.440;-2.054;2023-12-22T04:52:24;99975.72;;;13.38;64.25
77023;BME280;65952;51.440;-2.054;2023-12-22T04:54:49;99982.59;;;13.40;64.00
77023;BME280;65952;51.440;-2.054;2023-12-22T04:57:14;99982.31;;;13.35;64.32
77023;BME280;65952;51.440;-2.054;2023-12-22T04:59:40;99990.59;;;13.33;63.90
77023;BME280;65952;51.440;-2.054;2023-12-22T05:02:05;99989.44;;;13.43;63.67
77023;BME280;65952;51.440;-2.054;2023-12-22T05:04:31;99973.03;;;13.16;64.01
77023;BME280;65952;51.440;-2.054;2023-12-22T05:06:56;99980.97;;;13.03;64.49
77023;BME280;65952;51.440;-2.054;2023-12-22T05:09:23;99980.00;;;13.32;63.76
77023;BME280;65952;51.440;-2.054;2023-12-22T05:11:50;99983.91;;;13.29;63.81
77023;BME280;65952;51.440;-2.054;2023-12-22T05:14:15;99989.81;;;13.18;64.29
77023;BME280;65952;51.440;-2.054;2023-12-22T05:16:41;99980.66;;;13.12;64.11
77023;BME280;65952;51.440;-2.054;2023-12-22T05:19:06;99989.91;;;13.03;64.59
77023;BME280;65952;51.440;-2.054;2023-12-22T05:21:31;99997.59;;;13.28;64.17
77023;BME280;65952;51.440;-2.054;2023-12-22T05:23:57;99995.03;;;13.41;64.31
77023;BME280;65952;51.440;-2.054;2023-12-22T05:26:23;99987.78;;;13.20;64.76
77023;BME280;65952;51.440;-2.054;2023-12-22T05:28:49;99987.53;;;13.15;64.89
77023;BME280;65952;51.440;-2.054;2023-12-22T05:31:15;100003.84;;;13.50;63.81
77023;BME280;65952;51.440;-2.054;2023-12-22T05:33:41;100004.84;;;13.49;63.62
77023;BME280;65952;51.440;-2.054;2023-12-22T05:36:07;100001.38;;;13.33;64.18
77023;BME280;65952;51.440;-2.054;2023-12-22T05:38:38;100008.78;;;13.25;64.49
77023;BME280;65952;51.440;-2.054;2023-12-22T05:41:04;100012.09;;;13.27;64.52
77023;BME280;65952;51.440;-2.054;2023-12-22T05:43:32;100008.31;;;13.21;64.39
77023;BME280;65952;51.440;-2.054;2023-12-22T05:45:58;99999.22;;;13.22;64.27
77023;BME280;65952;51.440;-2.054;2023-12-22T05:48:24;100005.91;;;13.33;63.70
77023;BME280;65952;51.440;-2.054;2023-12-22T05:50:49;99991.88;;;13.16;64.23
77023;BME280;65952;51.440;-2.054;2023-12-22T05:53:15;100000.78;;;13.16;64.09
77023;BME280;65952;51.440;-2.054;2023-12-22T05:55:40;99991.28;;;12.99;64.27
77023;BME280;65952;51.440;-2.054;2023-12-22T05:58:05;100006.50;;;13.07;64.21
77023;BME280;65952;51.440;-2.054;2023-12-22T06:00:31;99999.72;;;13.32;63.23
77023;BME280;65952;51.440;-2.054;2023-12-22T06:02:56;99999.97;;;13.16;63.56
77023;BME280;65952;51.440;-2.054;2023-12-22T06:05:22;99993.44;;;13.04;63.85
77023;BME280;65952;51.440;-2.054;2023-12-22T06:07:48;99995.09;;;13.05;63.92
77023;BME280;65952;51.440;-2.054;2023-12-22T06:10:13;100010.63;;;13.03;64.25
77023;BME280;65952;51.440;-2.054;2023-12-22T06:12:39;100010.66;;;13.09;63.73
77023;BME280;65952;51.440;-2.054;2023-12-22T06:15:05;100007.91;;;13.03;64.39
77023;BME280;65952;51.440;-2.054;2023-12-22T06:17:30;100013.56;;;12.86;64.72
77023;BME280;65952;51.440;-2.054;2023-12-22T06:19:56;100011.13;;;13.13;64.22
77023;BME280;65952;51.440;-2.054;2023-12-22T06:22:21;100017.16;;;13.37;63.60
77023;BME280;65952;51.440;-2.054;2023-12-22T06:24:48;100000.28;;;13.28;63.53
77023;BME280;65952;51.440;-2.054;2023-12-22T06:27:13;100014.03;;;13.11;64.08
77023;BME280;65952;51.440;-2.054;2023-12-22T06:29:39;100020.00;;;13.50;63.17
77023;BME280;65952;51.440;-2.054;2023-12-22T06:32:05;100020.78;;;13.44;63.55
77023;BME280;65952;51.440;-2.054;2023-12-22T06:34:31;100027.94;;;13.37;64.06
77023;BME280;65952;51.440;-2.054;2023-12-22T06:36:57;100029.69;;;13.23;64.57
77023;BME280;65952;51.440;-2.054;2023-12-22T06:39:22;100024.03;;;13.17;64.69
77023;BME280;65952;51.440;-2.054;2023-12-22T06:41:48;100027.50;;;13.33;64.55
77023;BME280;65952;51.440;-2.054;2023-12-22T06:44:13;100017.63;;;13.19;64.83
77023;BME280;65952;51.440;-2.054;2023-12-22T06:46:38;100012.81;;;13.14;64.39
77023;BME280;65952;51.440;-2.054;2023-12-22T06:49:04;100019.59;;;13.10;64.17
77023;BME280;65952;51.440;-2.054;2023-12-22T06:51:31;100025.72;;;13.19;63.94
77023;BME280;65952;51.440;-2.054;2023-12-22T06:53:57;100025.44;;;13.35;63.25
77023;BME280;65952;51.440;-2.054;2023-12-22T06:56:33;100027.59;;;13.40;62.89
77023;BME280;65952;51.440;-2.054;2023-12-22T06:58:59;100024.63;;;13.35;63.16
77023;BME280;65952;51.440;-2.054;2023-12-22T07:01:27;100024.50;;;13.21;63.56
77023;BME280;65952;51.440;-2.054;2023-12-22T07:03:53;100036.03;;;13.15;64.31
77023;BME280;65952;51.440;-2.054;2023-12-22T07:06:20;100024.94;;;13.25;63.88
77023;BME280;65952;51.440;-2.054;2023-12-22T07:08:46;100039.25;;;13.25;63.63
77023;BME280;65952;51.440;-2.054;2023-12-22T07:11:20;100031.00;;;12.90;64.48
77023;BME280;65952;51.440;-2.054;2023-12-22T07:13:45;100037.56;;;13.03;64.38
77023;BME280;65952;51.440;-2.054;2023-12-22T07:16:11;100047.56;;;13.09;64.27
77023;BME280;65952;51.440;-2.054;2023-12-22T07:18:37;100038.84;;;13.07;64.45
77023;BME280;65952;51.440;-2.054;2023-12-22T07:21:03;100037.81;;;13.29;63.52
77023;BME280;65952;51.440;-2.054;2023-12-22T07:23:28;100044.25;;;13.28;63.69
77023;BME280;65952;51.440;-2.054;2023-12-22T07:25:54;100055.94;;;13.14;64.47
77023;BME280;65952;51.440;-2.054;2023-12-22T07:28:19;100044.81;;;13.39;63.50
77023;BME280;65952;51.440;-2.054;2023-12-22T07:30:45;100042.09;;;13.17;64.00
77023;BME280;65952;51.440;-2.054;2023-12-22T07:33:10;100054.75;;;13.01;64.91
77023;BME280;65952;51.440;-2.054;2023-12-22T07:35:36;100051.28;;;13.08;64.67
77023;BME280;65952;51.440;-2.054;2023-12-22T07:38:01;100049.94;;;12.97;64.90
77023;BME280;65952;51.440;-2.054;2023-12-22T07:40:29;100049.31;;;12.80;65.18
77023;BME280;65952;51.440;-2.054;2023-12-22T07:42:59;100050.00;;;12.82;65.36
77023;BME280;65952;51.440;-2.054;2023-12-22T07:45:24;100056.81;;;12.99;65.09
77023;BME280;65952;51.440;-2.054;2023-12-22T07:47:50;100055.94;;;13.14;64.53
77023;BME280;65952;51.440;-2.054;2023-12-22T07:50:15;100060.66;;;12.75;65.36
77023;BME280;65952;51.440;-2.054;2023-12-22T07:52:41;100059.75;;;12.83;64.75
77023;BME280;65952;51.440;-2.054;2023-12-22T07:55:07;100064.03;;;12.62;65.39
77023;BME280;65952;51.440;-2.054;2023-12-22T07:57:36;100064.75;;;12.71;64.92
77023;BME280;65952;51.440;-2.054;2023-12-22T08:00:04;100066.41;;;12.87;64.39
77023;BME280;65952;51.440;-2.054;2023-12-22T08:02:30;100072.56;;;12.81;64.41
77023;BME280;65952;51.440;-2.054;2023-12-22T08:04:55;100073.88;;;12.70;64.65
77023;BME280;65952;51.440;-2.054;2023-12-22T08:07:20;100072.38;;;12.67;64.63
77023;BME280;65952;51.440;-2.054;2023-12-22T08:09:46;100074.72;;;12.71;64.61
77023;BME280;65952;51.440;-2.054;2023-12-22T08:12:11;100063.84;;;12.64;64.75
77023;BME280;65952;51.440;-2.054;2023-12-22T08:14:37;100066.78;;;12.69;64.28
77023;BME280;65952;51.440;-2.054;2023-12-22T08:17:02;100065.50;;;12.80;64.08
77023;BME280;65952;51.440;-2.054;2023-12-22T08:19:28;100070.06;;;12.79;64.02
77023;BME280;65952;51.440;-2.054;2023-12-22T08:21:53;100069.13;;;12.87;63.62
77023;BME280;65952;51.440;-2.054;2023-12-22T08:24:22;100082.81;;;12.56;64.18
77023;BME280;65952;51.440;-2.054;2023-12-22T08:26:47;100084.09;;;12.75;63.49
77023;BME280;65952;51.440;-2.054;2023-12-22T08:29:13;100087.44;;;12.77;63.25
77023;BME280;65952;51.440;-2.054;2023-12-22T08:31:39;100093.28;;;12.80;63.04
77023;BME280;65952;51.440;-2.054;2023-12-22T08:34:04;100091.63;;;12.64;63.43
77023;BME280;65952;51.440;-2.054;2023-12-22T08:36:31;100086.44;;;12.63;63.56
77023;BME280;65952;51.440;-2.054;2023-12-22T08:38:57;100097.66;;;12.51;63.34
77023;BME280;65952;51.440;-2.054;2023-12-22T08:41:22;100101.81;;;12.84;62.48
77023;BME280;65952;51.440;-2.054;2023-12-22T08:43:48;100099.13;;;12.69;62.54
77023;BME280;65952;51.440;-2.054;2023-12-22T08:46:13;100096.16;;;12.79;62.73
77023;BME280;65952;51.440;-2.054;2023-12-22T08:48:39;100100.50;;;12.95;62.00
77023;BME280;65952;51.440;-2.054;2023-12-22T08:51:04;100111.38;;;12.87;61.80
77023;BME280;65952;51.440;-2.054;2023-12-22T08:53:30;100110.31;;;13.03;61.39
77023;BME280;65952;51.440;-2.054;2023-12-22T08:55:59;100124.88;;;12.72;61.96
77023;BME280;65952;51.440;-2.054;2023-12-22T08:58:26;100110.94;;;12.83;61.91
77023;BME280;65952;51.440;-2.054;2023-12-22T09:00:52;100115.91;;;13.01;61.26
77023;BME280;65952;51.440;-2.054;2023-12-22T09:03:17;100113.03;;;12.88;61.00
77023;BME280;65952;51.440;-2.054;2023-12-22T09:05:43;100110.97;;;13.05;60.52
77023;BME280;65952;51.440;-2.054;2023-12-22T09:08:08;100117.66;;;13.09;60.38
77023;BME280;65952;51.440;-2.054;2023-12-22T09:10:33;100122.97;;;13.02;60.29
77023;BME280;65952;51.440;-2.054;2023-12-22T09:12:59;100122.13;;;13.01;60.42
77023;BME280;65952;51.440;-2.054;2023-12-22T09:15:25;100128.19;;;12.89;60.74
77023;BME280;65952;51.440;-2.054;2023-12-22T09:17:52;100129.25;;;13.09;60.38
77023;BME280;65952;51.440;-2.054;2023-12-22T09:20:18;100129.91;;;13.11;60.38
77023;BME280;65952;51.440;-2.054;2023-12-22T09:22:44;100135.09;;;13.13;60.17
77023;BME280;65952;51.440;-2.054;2023-12-22T09:25:09;100136.88;;;13.21;59.90
77023;BME280;65952;51.440;-2.054;2023-12-22T09:27:35;100135.06;;;12.91;60.75
77023;BME280;65952;51.440;-2.054;2023-12-22T09:30:00;100142.47;;;13.04;60.07
77023;BME280;65952;51.440;-2.054;2023-12-22T09:32:25;100146.81;;;13.20;60.21
77023;BME280;65952;51.440;-2.054;2023-12-22T09:34:52;100148.41;;;13.14;59.93
77023;BME280;65952;51.440;-2.054;2023-12-22T09:37:17;100142.41;;;12.97;60.40
77023;BME280;65952;51.440;-2.054;2023-12-22T09:39:43;100156.19;;;13.39;59.58
77023;BME280;65952;51.440;-2.054;2023-12-22T09:42:08;100163.06;;;13.42;59.72
77023;BME280;65952;51.440;-2.054;2023-12-22T09:44:36;100158.63;;;13.19;60.35
77023;BME280;65952;51.440;-2.054;2023-12-22T09:47:03;100164.72;;;13.28;60.54
77023;BME280;65952;51.440;-2.054;2023-12-22T09:49:29;100169.94;;;13.29;60.58
77023;BME280;65952;51.440;-2.054;2023-12-22T09:51:57;100173.22;;;13.40;60.16
77023;BME280;65952;51.440;-2.054;2023-12-22T09:54:22;100175.41;;;13.36;60.16
77023;BME280;65952;51.440;-2.054;2023-12-22T09:56:50;100168.16;;;13.37;59.39
77023;BME280;65952;51.440;-2.054;2023-12-22T09:59:17;100169.03;;;13.37;59.87
77023;BME280;65952;51.440;-2.054;2023-12-22T10:01:43;100173.28;;;13.31;60.01
77023;BME280;65952;51.440;-2.054;2023-12-22T10:04:13;100179.69;;;13.45;59.51
77023;BME280;65952;51.440;-2.054;2023-12-22T10:06:43;100197.34;;;13.33;59.91
77023;BME280;65952;51.440;-2.054;2023-12-22T10:09:11;100200.44;;;13.30;60.32
77023;BME280;65952;51.440;-2.054;2023-12-22T10:11:39;100210.66;;;13.35;60.79
77023;BME280;65952;51.440;-2.054;2023-12-22T10:14:06;100217.09;;;13.19;61.56
77023;BME280;65952;51.440;-2.054;2023-12-22T10:16:31;100222.47;;;13.33;61.03
77023;BME280;65952;51.440;-2.054;2023-12-22T10:18:59;100221.44;;;13.35;61.52
77023;BME280;65952;51.440;-2.054;2023-12-22T10:21:25;100211.50;;;13.20;62.33
77023;BME280;65952;51.440;-2.054;2023-12-22T10:23:50;100222.69;;;13.02;62.32
77023;BME280;65952;51.440;-2.054;2023-12-22T10:26:15;100223.44;;;13.11;62.42
77023;BME280;65952;51.440;-2.054;2023-12-22T10:28:42;100212.91;;;13.16;62.10
77023;BME280;65952;51.440;-2.054;2023-12-22T10:31:08;100221.28;;;13.21;62.12
77023;BME280;65952;51.440;-2.054;2023-12-22T10:33:34;100209.81;;;13.19;61.45
77023;BME280;65952;51.440;-2.054;2023-12-22T10:36:00;100225.16;;;13.33;61.39
77023;BME280;65952;51.440;-2.054;2023-12-22T10:38:32;100223.69;;;13.46;61.34
77023;BME280;65952;51.440;-2.054;2023-12-22T10:40:57;100225.56;;;13.00;61.77
77023;BME280;65952;51.440;-2.054;2023-12-22T10:43:23;100228.22;;;13.45;61.10
77023;BME280;65952;51.440;-2.054;2023-12-22T10:45:52;100221.44;;;13.35;61.33
77023;BME280;65952;51.440;-2.054;2023-12-22T10:48:17;100220.34;;;13.44;60.82
77023;BME280;65952;51.440;-2.054;2023-12-22T10:50:43;100227.88;;;13.33;60.59
77023;BME280;65952;51.440;-2.054;2023-12-22T10:53:10;100225.72;;;13.44;60.12
77023;BME280;65952;51.440;-2.054;2023-12-22T10:55:36;100224.50;;;13.31;60.43
77023;BME280;65952;51.440;-2.054;2023-12-22T10:58:05;100222.81;;;13.30;60.16
77023;BME280;65952;51.440;-2.054;2023-12-22T11:00:32;100234.00;;;13.42;59.92
77023;BME280;65952;51.440;-2.054;2023-12-22T11:03:01;100242.94;;;13.43;59.76
77023;BME280;65952;51.440;-2.054;2023-12-22T11:05:29;100233.34;;;13.40;60.05
77023;BME280;65952;51.440;-2.054;2023-12-22T11:07:59;100215.53;;;13.61;59.62
77023;BME280;65952;51.440;-2.054;2023-12-22T11:10:27;100205.38;;;13.41;60.08
77023;BME280;65952;51.440;-2.054;2023-12-22T11:12:54;100202.47;;;14.01;58.85
77023;BME280;65952;51.440;-2.054;2023-12-22T11:15:24;100186.34;;;14.08;57.94
77023;BME280;65952;51.440;-2.054;2023-12-22T11:17:51;100198.97;;;14.07;57.91
77023;BME280;65952;51.440;-2.054;2023-12-22T11:20:17;100194.13;;;14.18;57.39
77023;BME280;65952;51.440;-2.054;2023-12-22T11:22:43;100182.47;;;14.17;57.01
77023;BME280;65952;51.440;-2.054;2023-12-22T11:25:09;100176.03;;;14.18;56.75
77023;BME280;65952;51.440;-2.054;2023-12-22T11:27:36;100181.78;;;13.87;57.19
77023;BME280;65952;51.440;-2.054;2023-12-22T11:30:04;100181.66;;;13.95;56.79
77023;BME280;65952;51.440;-2.054;2023-12-22T11:32:29;100184.16;;;13.96;56.67
77023;BME280;65952;51.440;-2.054;2023-12-22T11:34:56;100183.84;;;14.06;56.26
77023;BME280;65952;51.440;-2.054;2023-12-22T11:37:22;100174.84;;;13.99;56.82
77023;BME280;65952;51.440;-2.054;2023-12-22T11:39:47;100179.75;;;13.89;56.25
77023;BME280;65952;51.440;-2.054;2023-12-22T11:42:25;100179.75;;;13.89;56.17
77023;BME280;65952;51.440;-2.054;2023-12-22T11:44:53;100174.00;;;13.77;56.20
77023;BME280;65952;51.440;-2.054;2023-12-22T11:47:22;100177.88;;;13.68;57.00
77023;BME280;65952;51.440;-2.054;2023-12-22T11:49:48;100176.34;;;13.80;56.04
77023;BME280;65952;51.440;-2.054;2023-12-22T11:52:17;100175.88;;;13.76;56.29
77023;BME280;65952;51.440;-2.054;2023-12-22T11:54:55;100178.44;;;13.85;55.87
77023;BME280;65952;51.440;-2.054;2023-12-22T11:59:52;100165.84;;;13.70;55.98
77023;BME280;65952;51.440;-2.054;2023-12-22T12:02:18;100177.41;;;13.86;55.63
77023;BME280;65952;51.440;-2.054;2023-12-22T12:04:43;100175.03;;;13.97;54.82
77023;BME280;65952;51.440;-2.054;2023-12-22T12:07:41;100161.66;;;13.89;55.14
77023;BME280;65952;51.440;-2.054;2023-12-22T12:15:33;100181.66;;;13.95;55.44
77023;BME280;65952;51.440;-2.054;2023-12-22T12:17:58;100173.38;;;13.96;55.41
77023;BME280;65952;51.440;-2.054;2023-12-22T12:20:24;100175.28;;;13.81;55.99
77023;BME280;65952;51.440;-2.054;2023-12-22T12:22:49;100178.31;;;13.71;55.87
77023;BME280;65952;51.440;-2.054;2023-12-22T12:25:15;100186.25;;;14.01;55.05
77023;BME280;65952;51.440;-2.054;2023-12-22T12:27:41;100190.31;;;14.12;55.04
77023;BME280;65952;51.440;-2.054;2023-12-22T12:30:13;100205.75;;;13.96;55.71
77023;BME280;65952;51.440;-2.054;2023-12-22T12:32:42;100198.44;;;13.90;55.69
77023;BME280;65952;51.440;-2.054;2023-12-22T12:35:09;100199.63;;;14.09;55.42
77023;BME280;65952;51.440;-2.054;2023-12-22T12:37:35;100200.97;;;13.98;55.12
77023;BME280;65952;51.440;-2.054;2023-12-22T12:42:43;100216.94;;;14.15;54.96
77023;BME280;65952;51.440;-2.054;2023-12-22T12:45:09;100212.88;;;14.04;55.20
77023;BME280;65952;51.440;-2.054;2023-12-22T12:47:36;100214.75;;;14.04;55.26